HEBS weather

Beni Suef Air Base
Beni Suef, Beni Suef Governorate, Egypt

Public forecast

Using degrees Celsius for public forecast. Weather courtesy of forecast.io.

METAR (pilot weather report)

Closest report is Cairo International Airport, 58.5 nm (108.3 km) NNE. Retrieved 2019/03/22 14:30 UTC (6 minutes ago):

HECA 221430Z 02010KT 9999 SCT025 25/05 Q1014 NOSIG

TAF (pilot weather forecast)

Closest forecast is Cairo International Airport, 58.5 nm (108.3 km) NNE. Retrieved 2019/03/22 12:40 UTC (2 hours ago):

TAF HECA 221100Z 2212/2318 05010KT 9999 FEW025 TEMPO 2303/2306 VRB03KT 4000 BR NSC